createdAt,value
2018-01-27T00:01:28.523Z,8.55
2018-01-27T00:03:56.029Z,8.43
2018-01-27T00:06:23.601Z,7.22
2018-01-27T00:08:52.653Z,8.63
2018-01-27T00:11:22.117Z,6.72
2018-01-27T00:13:52.430Z,7.80
2018-01-27T00:16:19.951Z,7.65
2018-01-27T00:18:47.436Z,7.50
2018-01-27T00:21:14.918Z,7.55
2018-01-27T00:23:43.366Z,8.48
2018-01-27T00:26:10.854Z,7.57
2018-01-27T00:28:39.872Z,7.75
2018-01-27T00:31:07.366Z,7.00
2018-01-27T00:33:35.786Z,7.10
2018-01-27T00:36:03.272Z,7.00
2018-01-27T00:38:30.761Z,7.22
2018-01-27T00:40:58.271Z,7.43
2018-01-27T00:43:25.792Z,7.20
2018-01-27T00:45:53.289Z,7.30
2018-01-27T00:48:20.812Z,7.37
2018-01-27T00:50:48.302Z,7.28
2018-01-27T00:53:15.808Z,6.78
2018-01-27T00:55:43.303Z,6.35
2018-01-27T00:58:10.842Z,7.40
2018-01-27T01:00:38.341Z,7.53
2018-01-27T01:03:05.830Z,6.95
2018-01-27T01:05:33.311Z,6.75
2018-01-27T01:08:00.812Z,7.03
2018-01-27T01:10:28.319Z,6.87
2018-01-27T01:12:55.853Z,6.50
2018-01-27T01:15:23.367Z,7.07
2018-01-27T01:17:50.909Z,6.25
2018-01-27T01:20:18.470Z,6.82
2018-01-27T01:22:45.958Z,7.60
2018-01-27T01:25:13.469Z,6.18
2018-01-27T01:27:41.045Z,6.90
2018-01-27T01:30:10.477Z,7.45
2018-01-27T01:32:37.974Z,6.40
2018-01-27T01:35:05.571Z,6.70
2018-01-27T01:37:33.057Z,6.55
2018-01-27T01:40:00.573Z,6.15
2018-01-27T01:42:33.581Z,6.57
2018-01-27T01:45:01.087Z,6.93
2018-01-27T01:47:28.569Z,9.10
2018-01-27T01:49:56.067Z,7.60
2018-01-27T01:52:23.568Z,7.15
2018-01-27T01:54:51.061Z,5.90
2018-01-27T01:57:18.558Z,6.30
2018-01-27T01:59:46.057Z,6.40
2018-01-27T02:02:13.637Z,6.22
2018-01-27T02:04:41.122Z,6.22
2018-01-27T02:07:08.607Z,6.12
2018-01-27T02:09:36.106Z,5.43
2018-01-27T02:12:03.595Z,6.45
2018-01-27T02:14:31.092Z,6.97
2018-01-27T02:16:58.689Z,6.28
2018-01-27T02:19:27.530Z,6.43
2018-01-27T02:21:55.010Z,6.20
2018-01-27T02:24:22.595Z,6.25
2018-01-27T02:26:49.847Z,7.10
2018-01-27T02:29:17.338Z,6.43
2018-01-27T02:31:44.825Z,8.25
2018-01-27T02:34:12.605Z,7.30
2018-01-27T02:36:40.205Z,7.18
2018-01-27T02:39:07.682Z,6.43
2018-01-27T02:41:35.542Z,6.53
2018-01-27T02:44:03.033Z,6.55
2018-01-27T02:46:30.652Z,7.50
2018-01-27T02:48:59.081Z,6.97
2018-01-27T02:51:26.569Z,7.12
2018-01-27T02:53:54.065Z,7.32
2018-01-27T02:56:21.549Z,6.62
2018-01-27T02:58:49.436Z,6.80
2018-01-27T03:01:16.925Z,7.53
2018-01-27T03:03:44.405Z,7.05
2018-01-27T03:06:12.057Z,6.37
2018-01-27T03:08:39.547Z,6.70
2018-01-27T03:11:07.039Z,6.90
2018-01-27T03:13:34.527Z,6.07
2018-01-27T03:16:02.039Z,6.30
2018-01-27T03:18:29.621Z,7.10
2018-01-27T03:20:57.113Z,6.40
2018-01-27T03:23:24.596Z,6.20
2018-01-27T03:25:52.202Z,6.30
2018-01-27T03:28:19.685Z,6.35
2018-01-27T03:30:47.233Z,6.85
2018-01-27T03:33:14.721Z,6.90
2018-01-27T03:35:43.221Z,6.50
2018-01-27T03:38:10.710Z,6.68
2018-01-27T03:40:38.221Z,6.60
2018-01-27T03:43:05.757Z,6.53
2018-01-27T03:45:34.266Z,7.68
2018-01-27T03:48:01.745Z,7.25
2018-01-27T03:50:29.261Z,6.75
2018-01-27T03:52:56.754Z,7.28
2018-01-27T03:55:24.280Z,7.72
2018-01-27T03:57:51.769Z,8.55
2018-01-27T04:00:21.241Z,7.55
2018-01-27T04:02:48.749Z,7.60
2018-01-27T04:05:16.248Z,7.00
2018-01-27T04:07:43.734Z,7.28
2018-01-27T04:10:10.985Z,7.07
2018-01-27T04:12:38.490Z,7.05
2018-01-27T04:15:05.973Z,6.85
2018-01-27T04:17:33.463Z,7.35
2018-01-27T04:20:00.942Z,7.45
2018-01-27T04:22:28.524Z,7.25
2018-01-27T04:24:56.006Z,6.40
2018-01-27T04:27:23.530Z,7.00
2018-01-27T04:29:50.837Z,8.00
2018-01-27T04:32:18.345Z,7.47
2018-01-27T04:34:45.841Z,8.30
2018-01-27T04:37:13.474Z,9.05
2018-01-27T04:39:40.959Z,8.35
2018-01-27T04:42:08.457Z,8.05
2018-01-27T04:44:36.358Z,7.75
2018-01-27T04:47:03.857Z,9.07
2018-01-27T04:49:31.396Z,10.05
2018-01-27T04:51:59.060Z,8.85
2018-01-27T04:54:26.551Z,7.82
2018-01-27T04:56:54.156Z,8.07
2018-01-27T04:59:21.661Z,7.57
2018-01-27T05:01:49.754Z,9.18
2018-01-27T05:04:17.241Z,8.00
2018-01-27T05:06:45.767Z,8.40
2018-01-27T05:09:13.376Z,8.57
2018-01-27T05:11:40.890Z,7.47
2018-01-27T05:14:08.384Z,8.27
2018-01-27T05:16:35.890Z,8.30
2018-01-27T05:19:03.417Z,7.87
2018-01-27T05:21:30.921Z,8.00
2018-01-27T05:23:58.415Z,7.75
2018-01-27T05:26:25.917Z,9.40
2018-01-27T05:28:53.402Z,9.63
2018-01-27T05:31:20.915Z,9.70
2018-01-27T05:33:48.401Z,9.85
2018-01-27T05:36:16.652Z,11.73
2018-01-27T05:38:44.142Z,10.63
2018-01-27T05:41:11.863Z,9.82
2018-01-27T05:43:39.349Z,10.52
2018-01-27T05:46:06.836Z,11.90
2018-01-27T05:48:34.326Z,10.52
2018-01-27T05:51:01.814Z,10.23
2018-01-27T05:53:29.305Z,9.60
2018-01-27T05:55:56.607Z,9.73
2018-01-27T05:58:23.907Z,9.15
2018-01-27T06:00:51.390Z,8.80
2018-01-27T06:03:20.852Z,9.05
2018-01-27T06:05:48.342Z,9.57
2018-01-27T06:08:16.380Z,10.18
2018-01-27T06:10:43.863Z,9.55
2018-01-27T06:13:11.356Z,10.05
2018-01-27T06:15:38.661Z,10.35
2018-01-27T06:18:05.992Z,10.40
2018-01-27T06:20:33.490Z,10.80
2018-01-27T06:23:01.006Z,11.55
2018-01-27T06:25:28.502Z,9.65
2018-01-27T06:27:56.019Z,10.00
2018-01-27T06:30:23.502Z,8.77
2018-01-27T06:32:51.004Z,9.30
2018-01-27T06:35:18.508Z,10.07
2018-01-27T06:37:47.009Z,9.02
2018-01-27T06:40:14.503Z,10.98
2018-01-27T06:42:42.018Z,10.38
2018-01-27T06:45:09.505Z,8.80
2018-01-27T06:47:37.003Z,8.85
2018-01-27T06:50:04.272Z,10.05
2018-01-27T06:52:31.781Z,8.30
2018-01-27T06:54:59.297Z,8.85
2018-01-27T06:57:26.789Z,8.88
2018-01-27T06:59:54.293Z,9.60
2018-01-27T07:02:21.889Z,9.20
2018-01-27T07:04:49.370Z,8.57
2018-01-27T07:07:16.882Z,9.02
2018-01-27T07:09:45.317Z,9.82
2018-01-27T07:12:12.809Z,7.90
2018-01-27T07:14:40.298Z,7.78
2018-01-27T07:17:07.783Z,8.88
2018-01-27T07:19:35.293Z,9.38
2018-01-27T07:22:02.877Z,8.60
2018-01-27T07:24:30.385Z,8.95
2018-01-27T07:26:57.866Z,7.95
2018-01-27T07:29:25.125Z,8.40
2018-01-27T07:31:52.756Z,8.32
2018-01-27T07:34:20.469Z,8.60
2018-01-27T07:36:48.029Z,8.82
2018-01-27T07:39:15.513Z,8.20
2018-01-27T07:41:43.018Z,8.55
2018-01-27T07:44:10.492Z,8.45
2018-01-27T07:46:38.017Z,8.55
2018-01-27T07:49:05.501Z,8.18
2018-01-27T07:51:32.990Z,8.50
2018-01-27T07:54:00.554Z,9.70
2018-01-27T07:56:28.035Z,8.88
2018-01-27T07:58:55.517Z,8.70
2018-01-27T08:01:22.990Z,8.60
2018-01-27T08:03:51.430Z,7.65
2018-01-27T08:06:18.937Z,6.90
2018-01-27T08:08:47.374Z,7.03
2018-01-27T08:11:14.860Z,8.15
2018-01-27T08:13:42.374Z,7.85
2018-01-27T08:16:09.866Z,9.98
2018-01-27T08:18:37.367Z,8.30
2018-01-27T08:21:05.322Z,9.02
2018-01-27T08:23:33.802Z,8.98
2018-01-27T08:26:02.257Z,9.40
2018-01-27T08:28:29.746Z,9.32
2018-01-27T08:30:57.226Z,8.48
2018-01-27T08:33:24.714Z,9.27
2018-01-27T08:35:52.189Z,8.70
2018-01-27T08:38:19.690Z,9.18
2018-01-27T08:40:47.894Z,9.68
2018-01-27T08:43:15.828Z,8.52
2018-01-27T08:45:43.322Z,8.40
2018-01-27T08:48:10.823Z,7.40
2018-01-27T08:50:38.326Z,7.50
2018-01-27T08:53:06.772Z,7.10
2018-01-27T08:55:34.265Z,7.68
2018-01-27T08:58:02.669Z,7.35
2018-01-27T09:00:30.155Z,6.22
2018-01-27T09:02:57.642Z,6.43
2018-01-27T09:05:25.254Z,6.15
2018-01-27T09:07:52.782Z,10.85
2018-01-27T09:10:20.285Z,12.25
2018-01-27T09:12:47.805Z,7.22
2018-01-27T09:15:15.294Z,6.85
2018-01-27T09:17:42.891Z,5.72
2018-01-27T09:20:11.178Z,6.78
2018-01-27T09:22:38.715Z,5.37
2018-01-27T09:25:06.225Z,7.45
2018-01-27T09:27:34.226Z,6.75
2018-01-27T09:30:01.718Z,7.05
2018-01-27T09:32:29.250Z,7.45
2018-01-27T09:34:56.765Z,8.07
2018-01-27T09:37:24.320Z,7.45
2018-01-27T09:39:52.058Z,7.20
2018-01-27T09:42:19.605Z,7.47
2018-01-27T09:44:47.096Z,6.62
2018-01-27T09:47:14.646Z,7.43
2018-01-27T09:49:42.126Z,8.02
2018-01-27T09:52:09.606Z,8.77
2018-01-27T09:54:37.100Z,7.97
2018-01-27T09:57:05.554Z,7.90
2018-01-27T09:59:33.068Z,7.20
2018-01-27T10:02:00.565Z,7.20
2018-01-27T10:04:28.065Z,8.65
2018-01-27T10:06:55.546Z,8.85
2018-01-27T10:09:23.050Z,8.63
2018-01-27T10:11:50.525Z,8.70
2018-01-27T10:14:18.259Z,7.65
2018-01-27T10:16:45.782Z,8.70
2018-01-27T10:19:13.289Z,8.90
2018-01-27T10:21:40.795Z,8.55
2018-01-27T10:24:08.694Z,8.23
2018-01-27T10:26:36.224Z,11.40
2018-01-27T10:29:06.374Z,15.20
2018-01-27T10:31:33.866Z,16.08
2018-01-27T10:34:01.130Z,19.10
2018-01-27T10:36:28.622Z,16.52
2018-01-27T10:38:56.150Z,15.52
2018-01-27T10:41:23.641Z,16.98
2018-01-27T10:43:51.158Z,20.00
2018-01-27T10:46:18.650Z,21.30
2018-01-27T10:48:46.962Z,20.73
2018-01-27T10:51:14.450Z,20.95
2018-01-27T10:53:41.974Z,22.65
2018-01-27T10:56:10.417Z,22.52
2018-01-27T10:58:37.951Z,21.12
2018-01-27T11:01:05.457Z,20.00
2018-01-27T11:03:32.974Z,17.33
2018-01-27T11:06:00.501Z,18.75
2018-01-27T11:08:28.030Z,19.50
2018-01-27T11:10:55.526Z,15.98
2018-01-27T11:13:23.048Z,14.25
2018-01-27T11:15:51.191Z,15.60
2018-01-27T11:18:20.013Z,14.32
2018-01-27T11:20:47.509Z,16.65
2018-01-27T11:23:15.021Z,15.90
2018-01-27T11:25:42.513Z,17.77
2018-01-27T11:28:10.014Z,14.40
2018-01-27T11:30:37.513Z,14.00
2018-01-27T11:33:05.008Z,13.18
2018-01-27T11:35:32.510Z,13.73
2018-01-27T11:38:00.099Z,12.48
2018-01-27T11:40:27.591Z,12.18
2018-01-27T11:42:55.646Z,12.40
2018-01-27T11:45:23.563Z,12.88
2018-01-27T11:47:51.522Z,12.13
2018-01-27T11:50:19.121Z,12.25
2018-01-27T11:52:46.612Z,11.55
2018-01-27T11:55:14.126Z,12.13
2018-01-27T11:57:41.708Z,11.70
2018-01-27T12:00:09.197Z,12.27
2018-01-27T12:02:37.000Z,11.98
2018-01-27T12:05:04.659Z,10.75
2018-01-27T12:07:32.170Z,10.98
2018-01-27T12:09:59.677Z,12.52
2018-01-27T12:12:27.189Z,13.25
2018-01-27T12:14:55.702Z,12.13
2018-01-27T12:17:23.010Z,12.75
2018-01-27T12:19:50.573Z,13.02
2018-01-27T12:22:18.272Z,12.27
2018-01-27T12:24:45.691Z,12.55
2018-01-27T12:27:13.182Z,12.48
2018-01-27T12:29:40.721Z,12.32
2018-01-27T12:32:08.217Z,15.07
2018-01-27T12:34:35.733Z,14.50
2018-01-27T12:37:03.240Z,11.93
2018-01-27T12:39:30.754Z,14.68
2018-01-27T12:41:58.249Z,14.48
2018-01-27T12:44:25.774Z,15.57
2018-01-27T12:46:53.287Z,14.65
2018-01-27T12:49:20.819Z,15.18
2018-01-27T12:51:48.305Z,15.32
2018-01-27T12:54:15.810Z,13.43
2018-01-27T12:56:43.319Z,15.00
2018-01-27T12:59:10.836Z,14.98
2018-01-27T13:01:38.338Z,14.43
2018-01-27T13:04:05.870Z,15.15
2018-01-27T13:06:34.394Z,15.05
2018-01-27T13:09:01.890Z,15.95
2018-01-27T13:11:29.424Z,15.00
2018-01-27T13:13:57.866Z,14.75
2018-01-27T13:16:25.357Z,14.68
2018-01-27T13:18:52.857Z,13.07
2018-01-27T13:21:20.361Z,13.57
2018-01-27T13:23:47.323Z,12.80
2018-01-27T13:26:15.619Z,13.47
2018-01-27T13:28:42.840Z,13.53
2018-01-27T13:31:13.204Z,15.33
2018-01-27T13:33:42.065Z,14.50
2018-01-27T13:36:09.322Z,15.50
2018-01-27T13:38:37.719Z,13.27
2018-01-27T13:41:06.736Z,15.87
2018-01-27T13:43:34.059Z,15.40
2018-01-27T13:46:01.958Z,16.40
2018-01-27T13:48:30.259Z,16.80
2018-01-27T13:50:57.815Z,18.58
2018-01-27T13:53:25.318Z,18.27
2018-01-27T13:55:52.838Z,19.92
2018-01-27T13:58:20.518Z,21.73
2018-01-27T14:00:48.062Z,21.90
2018-01-27T14:03:15.361Z,21.70
2018-01-27T14:05:43.796Z,23.95
2018-01-27T14:08:11.298Z,23.67
2018-01-27T14:10:42.116Z,23.20
2018-01-27T14:13:10.061Z,22.80
2018-01-27T14:15:38.106Z,21.23
2018-01-27T14:18:05.595Z,34.53
2018-01-27T14:20:33.838Z,24.55
2018-01-27T14:23:01.333Z,22.13
2018-01-27T14:25:28.852Z,23.60
2018-01-27T14:27:56.342Z,22.25
2018-01-27T14:30:25.822Z,22.13
2018-01-27T14:32:53.317Z,22.25
2018-01-27T14:35:20.828Z,23.25
2018-01-27T14:37:48.336Z,21.60
2018-01-27T14:40:15.873Z,21.90
2018-01-27T14:42:43.541Z,22.40
2018-01-27T14:45:11.148Z,22.77
2018-01-27T14:47:38.660Z,22.77
2018-01-27T14:50:06.167Z,22.80
2018-01-27T14:52:33.757Z,21.48
2018-01-27T14:55:01.252Z,21.65
2018-01-27T14:57:28.742Z,23.02
2018-01-27T14:59:56.263Z,22.42
2018-01-27T15:02:24.280Z,23.05
2018-01-27T15:04:51.778Z,23.12
2018-01-27T15:07:19.265Z,23.23
2018-01-27T15:09:46.843Z,22.37
2018-01-27T15:12:14.336Z,22.73
2018-01-27T15:14:41.828Z,21.98
2018-01-27T15:17:09.797Z,22.87
2018-01-27T15:19:37.286Z,21.98
2018-01-27T15:22:04.554Z,21.90
2018-01-27T15:24:32.047Z,23.85
2018-01-27T15:26:59.686Z,23.70
2018-01-27T15:29:27.215Z,22.15
2018-01-27T15:31:54.714Z,25.92
2018-01-27T15:34:22.218Z,25.77
2018-01-27T15:36:50.177Z,22.00
2018-01-27T15:39:17.436Z,22.05
2018-01-27T15:41:44.954Z,21.75
2018-01-27T15:44:12.622Z,23.48
2018-01-27T15:46:40.114Z,22.25
2018-01-27T15:49:07.629Z,23.00
2018-01-27T15:51:35.121Z,21.00
2018-01-27T15:54:02.639Z,21.50
2018-01-27T15:56:30.154Z,21.92
2018-01-27T15:58:57.681Z,23.15
2018-01-27T16:01:25.285Z,20.33
2018-01-27T16:03:52.575Z,19.55
2018-01-27T16:06:20.077Z,22.17
2018-01-27T16:08:47.619Z,21.65
2018-01-27T16:11:15.122Z,21.62
2018-01-27T16:13:42.649Z,22.50
2018-01-27T16:16:10.233Z,22.23
2018-01-27T16:18:37.761Z,21.80
2018-01-27T16:21:05.257Z,20.73
2018-01-27T16:23:32.797Z,20.62
2018-01-27T16:26:00.284Z,19.05
2018-01-27T16:28:27.815Z,20.20
2018-01-27T16:30:55.114Z,18.95
2018-01-27T16:33:22.629Z,20.45
2018-01-27T16:35:50.125Z,20.55
2018-01-27T16:38:17.633Z,22.48
2018-01-27T16:40:45.123Z,21.62
2018-01-27T16:43:13.382Z,24.40
2018-01-27T16:45:40.874Z,20.50
2018-01-27T16:48:08.369Z,21.17
2018-01-27T16:50:35.877Z,20.50
2018-01-27T16:53:03.376Z,20.88
2018-01-27T16:55:30.870Z,19.70
2018-01-27T16:57:58.443Z,20.05
2018-01-27T17:00:25.792Z,18.30
2018-01-27T17:02:54.246Z,19.23
2018-01-27T17:05:21.834Z,17.35
2018-01-27T17:07:49.576Z,18.83
2018-01-27T17:10:17.077Z,17.77
2018-01-27T17:12:45.555Z,18.75
2018-01-27T17:15:14.466Z,17.73
2018-01-27T17:17:41.985Z,16.92
2018-01-27T17:20:09.480Z,19.65
2018-01-27T17:22:36.984Z,19.65
2018-01-27T17:25:04.479Z,17.80
2018-01-27T17:27:31.974Z,16.77
2018-01-27T17:29:59.461Z,19.95
2018-01-27T17:32:26.960Z,18.00
2018-01-27T17:34:54.479Z,18.25
2018-01-27T17:37:21.963Z,17.20
2018-01-27T17:39:49.478Z,17.37
2018-01-27T17:42:16.865Z,17.08
2018-01-27T17:44:44.374Z,17.17
2018-01-27T17:47:11.879Z,16.30
2018-01-27T17:49:39.423Z,15.68
2018-01-27T17:52:07.000Z,16.52
2018-01-27T17:54:34.522Z,15.68
2018-01-27T17:57:02.418Z,16.50
2018-01-27T17:59:29.938Z,17.60
2018-01-27T18:01:57.251Z,16.90
2018-01-27T18:04:24.753Z,16.35
2018-01-27T18:06:52.066Z,18.15
2018-01-27T18:09:19.581Z,15.30
2018-01-27T18:11:47.069Z,17.33
2018-01-27T18:14:14.618Z,22.17
2018-01-27T18:16:42.119Z,25.95
2018-01-27T18:19:10.641Z,24.52
2018-01-27T18:21:39.084Z,27.10
2018-01-27T18:24:06.601Z,21.70
2018-01-27T18:26:34.111Z,16.17
2018-01-27T18:29:03.551Z,18.52
2018-01-27T18:31:31.044Z,19.50
2018-01-27T18:33:58.561Z,18.58
2018-01-27T18:36:26.157Z,17.50
2018-01-27T18:38:53.666Z,17.90
2018-01-27T18:41:21.154Z,18.00
2018-01-27T18:43:48.661Z,18.23
2018-01-27T18:46:16.169Z,18.17
2018-01-27T18:48:43.440Z,18.40
2018-01-27T18:51:12.847Z,18.60
2018-01-27T18:53:41.891Z,20.12
2018-01-27T18:56:09.410Z,18.75
2018-01-27T18:58:36.901Z,16.67
2018-01-27T19:01:04.389Z,17.20
2018-01-27T19:03:32.823Z,18.48
2018-01-27T19:06:00.317Z,18.40
2018-01-27T19:08:27.602Z,19.55
2018-01-27T19:10:55.094Z,19.65
2018-01-27T19:13:22.596Z,18.17
2018-01-27T19:15:50.099Z,20.08
2018-01-27T19:18:17.626Z,20.60
2018-01-27T19:20:45.124Z,20.65
2018-01-27T19:23:14.598Z,18.80
2018-01-27T19:25:42.090Z,19.08
2018-01-27T19:28:09.581Z,20.50
2018-01-27T19:30:37.074Z,18.90
2018-01-27T19:33:04.574Z,21.30
2018-01-27T19:35:32.106Z,21.12
2018-01-27T19:37:59.602Z,20.15
2018-01-27T19:40:27.093Z,18.58
2018-01-27T19:42:54.934Z,20.20
2018-01-27T19:45:22.421Z,19.25
2018-01-27T19:47:49.915Z,20.40
2018-01-27T19:50:17.405Z,18.92
2018-01-27T19:52:44.910Z,19.85
2018-01-27T19:55:12.403Z,18.27
2018-01-27T19:57:39.902Z,22.80
2018-01-27T20:00:07.442Z,25.95
2018-01-27T20:02:35.040Z,42.62
2018-01-27T20:05:02.529Z,32.78
2018-01-27T20:07:30.034Z,27.70
2018-01-27T20:09:57.541Z,23.55
2018-01-27T20:12:24.868Z,19.62
2018-01-27T20:14:52.357Z,18.20
2018-01-27T20:17:19.846Z,19.60
2018-01-27T20:19:47.085Z,17.35
2018-01-27T20:22:14.581Z,19.50
2018-01-27T20:24:42.085Z,18.15
2018-01-27T20:27:09.594Z,18.65
2018-01-27T20:29:37.111Z,18.90
2018-01-27T20:32:04.606Z,19.35
2018-01-27T20:34:32.121Z,18.98
2018-01-27T20:36:59.613Z,19.08
2018-01-27T20:39:27.120Z,18.92
2018-01-27T20:41:54.429Z,18.92
2018-01-27T20:44:21.952Z,20.50
2018-01-27T20:46:49.458Z,19.65
2018-01-27T20:49:16.790Z,19.70
2018-01-27T20:51:44.090Z,19.40
2018-01-27T20:54:13.612Z,19.77
2018-01-27T20:56:41.139Z,21.62
2018-01-27T20:59:08.495Z,21.92
2018-01-27T21:01:36.010Z,20.88
2018-01-27T21:04:03.508Z,21.27
2018-01-27T21:06:30.820Z,20.98
2018-01-27T21:08:58.329Z,20.60
2018-01-27T21:11:25.822Z,21.65
2018-01-27T21:13:53.324Z,23.75
2018-01-27T21:16:20.823Z,20.90
2018-01-27T21:18:48.341Z,21.33
2018-01-27T21:21:15.851Z,23.15
2018-01-27T21:23:43.341Z,21.90
2018-01-27T21:26:10.646Z,23.48
2018-01-27T21:28:38.154Z,21.48
2018-01-27T21:31:05.649Z,22.80
2018-01-27T21:33:33.137Z,21.30
2018-01-27T21:36:00.638Z,22.27
2018-01-27T21:38:28.138Z,22.27
2018-01-27T21:40:55.637Z,22.48
2018-01-27T21:43:23.399Z,23.10
2018-01-27T21:45:50.893Z,22.42
2018-01-27T21:48:18.403Z,22.67
2018-01-27T21:50:45.900Z,22.10
2018-01-27T21:53:13.389Z,22.00
2018-01-27T21:55:41.825Z,24.25
2018-01-27T21:58:09.496Z,24.00
2018-01-27T22:00:37.997Z,23.98
2018-01-27T22:03:05.487Z,24.35
2018-01-27T22:05:33.062Z,24.17
2018-01-27T22:08:00.549Z,23.48
2018-01-27T22:10:28.030Z,23.10
2018-01-27T22:12:55.528Z,22.90
2018-01-27T22:15:23.046Z,23.35
2018-01-27T22:17:50.537Z,23.60
2018-01-27T22:20:18.041Z,24.27
2018-01-27T22:22:45.533Z,22.75
2018-01-27T22:25:13.041Z,22.90
2018-01-27T22:27:40.534Z,23.80
2018-01-27T22:30:08.144Z,23.00
2018-01-27T22:32:35.637Z,26.83
2018-01-27T22:35:03.162Z,24.08
2018-01-27T22:37:30.650Z,25.37
2018-01-27T22:39:59.170Z,23.62
2018-01-27T22:42:26.663Z,24.15
2018-01-27T22:44:54.169Z,23.83
2018-01-27T22:47:21.779Z,24.25
2018-01-27T22:49:49.305Z,23.20
2018-01-27T22:52:16.790Z,24.60
2018-01-27T22:54:44.302Z,23.80
2018-01-27T22:57:11.785Z,23.95
2018-01-27T22:59:39.286Z,24.15
2018-01-27T23:02:06.782Z,24.50
2018-01-27T23:04:34.403Z,23.73
2018-01-27T23:07:01.892Z,25.55
2018-01-27T23:09:29.397Z,24.50
2018-01-27T23:11:57.590Z,23.08
2018-01-27T23:14:25.093Z,24.15
2018-01-27T23:16:52.581Z,22.62
2018-01-27T23:19:20.157Z,24.45
2018-01-27T23:21:47.650Z,21.80
2018-01-27T23:24:15.165Z,22.42
2018-01-27T23:26:42.758Z,21.02
2018-01-27T23:29:10.244Z,19.80
2018-01-27T23:31:37.740Z,18.90
2018-01-27T23:34:05.229Z,19.10
2018-01-27T23:36:32.725Z,18.73
2018-01-27T23:39:00.882Z,17.40
2018-01-27T23:41:28.399Z,17.92
2018-01-27T23:43:55.894Z,17.08
2018-01-27T23:46:23.224Z,16.20
2018-01-27T23:48:50.741Z,16.27
2018-01-27T23:51:18.249Z,15.57
2018-01-27T23:53:45.733Z,17.65
2018-01-27T23:56:13.250Z,14.65
2018-01-27T23:58:40.739Z,17.35
